Time;durP1;ratioP1;P1;durP2;ratioP2;P2;SDS_P1;SDS_P2;PMS_P1;PMS_P2;Temp;Humidity;BMP_temperature;BMP_pressure;BME280_temperature;BME280_humidity;BME280_pressure;Samples;Min_cycle;Max_cycle;Signal;HPM_P1;HPM_P2
2023/08/11 00:00:25;;;;;;;10.45;3.22;;;538.50;2406.40;;;;;;5055296;28;20020;-70
2023/08/11 00:02:51;;;;;;;6.05;2.90;;;538.50;2406.40;;;;;;5073193;28;20042;-70
2023/08/11 00:05:18;;;;;;;4.00;2.67;;;538.50;2406.40;;;;;;5073039;28;20013;-71
2023/08/11 00:07:50;;;;;;;4.32;2.67;;;538.50;2406.40;;;;;;5072871;28;20024;-71
2023/08/11 00:10:18;;;;;;;3.72;2.35;;;538.50;2406.40;;;;;;5073266;28;20024;-70
2023/08/11 00:12:43;;;;;;;5.53;2.92;;;538.50;2406.40;;;;;;5072947;28;20021;-73
2023/08/11 00:15:09;;;;;;;6.00;2.88;;;538.50;2406.40;;;;;;5073191;28;20432;-69
2023/08/11 00:17:35;;;;;;;4.38;2.83;;;538.50;2406.40;;;;;;5072847;28;20035;-70
2023/08/11 00:20:01;;;;;;;6.65;2.67;;;538.40;2406.40;;;;;;5073098;28;20024;-71
2023/08/11 00:22:26;;;;;;;5.57;2.88;;;538.40;2406.40;;;;;;5072706;28;20040;-77
2023/08/11 00:24:52;;;;;;;6.25;3.10;;;538.40;2406.40;;;;;;5073219;28;20524;-70
2023/08/11 00:27:19;;;;;;;6.68;2.60;;;538.40;2406.40;;;;;;5072911;28;20032;-70
2023/08/11 00:29:45;;;;;;;4.80;3.28;;;538.40;2406.40;;;;;;5072954;28;20099;-70
2023/08/11 00:32:11;;;;;;;4.45;2.75;;;538.30;2406.40;;;;;;5072726;28;20056;-69
2023/08/11 00:34:37;;;;;;;5.78;3.20;;;538.20;2406.40;;;;;;5072938;28;20027;-70
2023/08/11 00:37:03;;;;;;;6.70;3.45;;;538.10;2406.40;;;;;;5072604;28;20489;-71
2023/08/11 00:39:29;;;;;;;6.72;3.20;;;537.90;2406.40;;;;;;5072980;28;20020;-71
2023/08/11 00:41:55;;;;;;;5.90;3.88;;;537.60;2406.40;;;;;;5072503;28;20459;-69
2023/08/11 00:44:21;;;;;;;6.18;3.60;;;512.80;2380.80;;;;;;5072905;28;20498;-72
2023/08/11 00:46:47;;;;;;;10.45;3.00;;;512.70;2380.80;;;;;;5072583;28;20059;-70
2023/08/11 00:49:16;;;;;;;7.53;3.70;;;512.50;2380.80;;;;;;5072537;28;20052;-70
2023/08/11 00:51:42;;;;;;;7.85;3.20;;;512.50;2380.80;;;;;;5072331;28;20029;-72
2023/08/11 00:54:10;;;;;;;6.68;3.30;;;512.60;2380.80;;;;;;5072710;28;20035;-75
2023/08/11 00:56:37;;;;;;;7.32;4.32;;;512.80;2380.80;;;;;;5072647;28;20067;-70
2023/08/11 00:59:04;;;;;;;8.15;3.55;;;512.80;2380.80;;;;;;5074181;28;20053;-76
2023/08/11 01:01:29;;;;;;;9.75;3.78;;;512.90;2380.80;;;;;;5076522;28;20036;-74
2023/08/11 01:03:55;;;;;;;7.20;3.80;;;512.90;2380.80;;;;;;5076492;28;20086;-74
2023/08/11 01:06:32;;;;;;;6.07;3.65;;;512.90;2380.80;;;;;;5076077;28;20474;-69
2023/08/11 01:09:01;;;;;;;6.45;4.72;;;512.90;2380.80;;;;;;5076520;28;20149;-75
2023/08/11 01:11:47;;;;;;;6.07;3.60;;;512.90;2380.80;;;;;;5076280;28;20028;-71
2023/08/11 01:14:18;;;;;;;;;;;512.80;2380.80;;;;;;5076781;28;20024;-70
2023/08/11 01:16:48;;;;;;;7.38;4.00;;;512.90;2380.80;;;;;;5076287;28;19905;-70
2023/08/11 01:19:23;;;;;;;7.03;3.70;;;512.80;2380.80;;;;;;5075941;28;20033;-70
2023/08/11 01:21:52;;;;;;;7.05;3.63;;;512.80;2380.80;;;;;;5076024;28;20032;-75
2023/08/11 01:24:18;;;;;;;7.63;4.20;;;512.80;2380.80;;;;;;5076017;28;20025;-70
2023/08/11 01:26:44;;;;;;;6.78;3.85;;;512.70;2380.80;;;;;;5076206;28;20111;-70
2023/08/11 01:29:10;;;;;;;4.95;3.08;;;512.60;2380.80;;;;;;5071343;28;20094;-75
2023/08/11 01:31:36;;;;;;;6.88;3.80;;;512.50;2380.80;;;;;;5067484;28;20028;-69
2023/08/11 01:34:03;;;;;;;5.70;2.80;;;512.50;2380.80;;;;;;5075710;28;20474;-70
2023/08/11 01:36:28;;;;;;;5.25;3.28;;;512.60;2380.80;;;;;;5075841;28;20351;-73
2023/08/11 01:38:54;;;;;;;4.82;2.92;;;512.70;2380.80;;;;;;5075716;28;20027;-70
2023/08/11 01:41:20;;;;;;;5.03;3.15;;;512.70;2380.80;;;;;;5076042;28;20431;-71
2023/08/11 01:43:47;;;;;;;5.38;3.20;;;512.50;2380.80;;;;;;5075632;28;20039;-69
2023/08/11 01:46:13;;;;;;;5.80;2.83;;;512.30;2380.80;;;;;;5075878;28;20051;-68
2023/08/11 01:48:39;;;;;;;6.35;3.05;;;512.20;2380.80;;;;;;5075077;28;20494;-70
2023/08/11 01:51:05;;;;;;;6.97;3.65;;;512.10;2380.80;;;;;;5075583;28;20025;-75
2023/08/11 01:53:31;;;;;;;5.82;3.25;;;512.00;2380.80;;;;;;5057422;28;20106;-73
2023/08/11 01:55:57;;;;;;;4.85;3.20;;;487.30;2380.80;;;;;;5075595;28;20028;-70
2023/08/11 01:58:22;;;;;;;7.35;3.60;;;487.20;2380.80;;;;;;5075390;28;20024;-71
2023/08/11 02:00:48;;;;;;;6.40;3.58;;;487.20;2380.80;;;;;;5075445;28;20024;-69
2023/08/11 02:03:14;;;;;;;4.53;3.00;;;487.20;2380.80;;;;;;5075080;28;20029;-71
2023/08/11 02:05:39;;;;;;;6.68;3.53;;;487.30;2380.80;;;;;;5075429;28;20016;-70
2023/08/11 02:08:05;;;;;;;5.20;3.45;;;487.20;2380.80;;;;;;5075223;28;20100;-74
2023/08/11 02:10:32;;;;;;;5.32;3.13;;;487.10;2380.80;;;;;;5075146;28;20023;-74
2023/08/11 02:12:58;;;;;;;8.05;3.65;;;487.30;2380.80;;;;;;5075271;28;20134;-74
2023/08/11 02:15:23;;;;;;;8.98;3.55;;;487.30;2380.80;;;;;;5075385;28;20107;-73
2023/08/11 02:17:49;;;;;;;4.80;3.17;;;487.30;2380.80;;;;;;5075004;28;20063;-73
2023/08/11 02:20:21;;;;;;;8.05;3.97;;;487.30;2380.80;;;;;;5075120;28;20044;-76
2023/08/11 02:22:47;;;;;;;4.90;3.53;;;487.30;2380.80;;;;;;5074875;28;20040;-69
2023/08/11 02:25:13;;;;;;;9.05;3.53;;;487.20;2380.80;;;;;;5075064;28;20025;-70
2023/08/11 02:27:39;;;;;;;7.32;3.30;;;487.20;2380.80;;;;;;5074880;28;20043;-71
2023/08/11 02:30:06;;;;;;;7.35;3.60;;;487.10;2380.80;;;;;;5074962;28;20050;-69
2023/08/11 02:32:32;;;;;;;6.75;3.03;;;487.10;2380.80;;;;;;5074691;28;20463;-73
2023/08/11 02:34:58;;;;;;;5.05;3.00;;;487.10;2380.80;;;;;;5074798;28;20029;-69
2023/08/11 02:37:24;;;;;;;4.85;3.00;;;487.30;2380.80;;;;;;5074541;28;20025;-75
2023/08/11 02:39:49;;;;;;;5.85;3.40;;;487.10;2380.80;;;;;;5074846;28;20051;-70
2023/08/11 02:42:15;;;;;;;5.88;3.33;;;487.10;2380.80;;;;;;5074544;28;20100;-69
2023/08/11 02:44:41;;;;;;;7.38;3.58;;;487.10;2380.80;;;;;;5074649;28;20377;-71
2023/08/11 02:47:07;;;;;;;9.73;3.67;;;487.10;2380.80;;;;;;5074617;28;20055;-69
2023/08/11 02:49:33;;;;;;;11.18;3.50;;;487.10;2380.80;;;;;;5074075;28;20054;-76
2023/08/11 02:51:59;;;;;;;6.75;3.40;;;487.10;2380.80;;;;;;5074279;28;20108;-73
2023/08/11 02:54:25;;;;;;;6.68;3.38;;;487.10;2380.80;;;;;;5074517;28;20031;-74
2023/08/11 02:56:51;;;;;;;7.10;3.67;;;487.00;2380.80;;;;;;5074255;28;20069;-70
2023/08/11 02:59:16;;;;;;;5.93;3.45;;;487.10;2380.80;;;;;;5074595;28;20467;-70
2023/08/11 03:01:43;;;;;;;7.05;3.75;;;487.10;2380.80;;;;;;5074109;28;20462;-71
2023/08/11 03:04:08;;;;;;;7.35;3.55;;;487.10;2380.80;;;;;;5074152;28;20065;-72
2023/08/11 03:06:34;;;;;;;7.38;3.53;;;487.00;2380.80;;;;;;5074207;28;20040;-70
2023/08/11 03:09:00;;;;;;;7.05;3.70;;;487.00;2380.80;;;;;;5074444;28;20498;-73
2023/08/11 03:11:26;;;;;;;13.05;4.90;;;487.00;2380.80;;;;;;5074179;28;20012;-71
2023/08/11 03:13:52;;;;;;;6.05;3.30;;;486.90;2380.80;;;;;;5073999;28;20029;-74
2023/08/11 03:16:17;;;;;;;8.77;4.40;;;486.80;2380.80;;;;;;5073870;28;20489;-71
2023/08/11 03:18:43;;;;;;;8.90;4.88;;;486.70;2380.80;;;;;;5073843;28;20060;-74
2023/08/11 03:21:09;;;;;;;7.22;3.70;;;486.60;2380.80;;;;;;5073396;28;20027;-70
2023/08/11 03:23:35;;;;;;;7.13;4.13;;;486.50;2380.80;;;;;;5073555;28;20086;-70
2023/08/11 03:26:01;;;;;;;7.82;4.00;;;486.50;2380.80;;;;;;5073716;28;20031;-70
2023/08/11 03:28:26;;;;;;;8.40;3.80;;;486.50;2380.80;;;;;;5073770;28;20098;-73
2023/08/11 03:30:52;;;;;;;6.38;4.03;;;486.50;2380.80;;;;;;5073535;28;20103;-74
2023/08/11 03:33:18;;;;;;;5.68;3.70;;;486.50;2380.80;;;;;;5073681;28;20409;-72
2023/08/11 03:35:43;;;;;;;6.57;3.92;;;486.50;2380.80;;;;;;5073524;28;20383;-72
2023/08/11 03:38:09;;;;;;;9.13;4.40;;;486.40;2380.80;;;;;;5073565;28;20077;-71
2023/08/11 03:40:35;;;;;;;9.57;4.13;;;461.70;2380.80;;;;;;5073683;28;20056;-70
2023/08/11 03:43:00;;;;;;;7.35;3.92;;;461.70;2380.80;;;;;;5073567;28;20037;-74
2023/08/11 03:45:26;;;;;;;11.02;4.07;;;461.70;2380.80;;;;;;5073173;28;20099;-69
2023/08/11 03:47:52;;;;;;;6.55;4.03;;;461.70;2380.80;;;;;;5073283;28;20128;-72
2023/08/11 03:50:18;;;;;;;9.13;4.20;;;461.70;2380.80;;;;;;5072930;28;20056;-72
2023/08/11 03:52:45;;;;;;;11.38;4.55;;;461.60;2380.80;;;;;;5055135;28;20094;-72
2023/08/11 03:55:12;;;;;;;7.47;3.85;;;461.50;2380.80;;;;;;5073129;28;20036;-72
2023/08/11 03:57:38;;;;;;;8.18;3.95;;;461.40;2380.80;;;;;;5073344;28;20020;-69
2023/08/11 04:00:15;;;;;;;11.48;4.32;;;461.30;2380.80;;;;;;5073331;28;20024;-69
2023/08/11 04:02:44;;;;;;;10.07;4.88;;;461.30;2380.80;;;;;;5073134;28;20028;-69
2023/08/11 04:05:10;;;;;;;10.00;4.53;;;461.40;2380.80;;;;;;5073072;28;20426;-70
2023/08/11 04:07:39;;;;;;;8.20;4.10;;;461.40;2380.80;;;;;;5073161;28;20067;-70
2023/08/11 04:10:05;;;;;;;7.43;4.93;;;461.30;2380.80;;;;;;5073193;28;20035;-70
2023/08/11 04:12:32;;;;;;;7.60;3.85;;;461.30;2380.80;;;;;;5073142;28;20081;-72
2023/08/11 04:14:57;;;;;;;7.25;4.15;;;461.30;2380.80;;;;;;5072927;28;20024;-71
2023/08/11 04:17:23;;;;;;;9.13;4.40;;;461.20;2380.80;;;;;;5072962;28;20028;-69
2023/08/11 04:19:49;;;;;;;6.30;3.97;;;461.20;2380.80;;;;;;5069976;28;20035;-69
2023/08/11 04:22:15;;;;;;;6.82;3.65;;;461.30;2380.80;;;;;;5065521;28;20397;-70
2023/08/11 04:24:41;;;;;;;7.10;4.20;;;461.40;2380.80;;;;;;5054458;28;20028;-68
2023/08/11 04:27:07;;;;;;;5.90;4.05;;;461.40;2380.80;;;;;;5054203;28;20052;-73
2023/08/11 04:29:33;;;;;;;6.00;4.18;;;461.40;2380.80;;;;;;5072102;28;20433;-70
2023/08/11 04:32:04;;;;;;;10.10;3.63;;;461.40;2380.80;;;;;;5072220;28;20029;-69
2023/08/11 04:34:33;;;;;;;15.35;4.45;;;461.40;2380.80;;;;;;5074211;28;20067;-71
2023/08/11 04:37:00;;;;;;;7.95;3.80;;;461.30;2380.80;;;;;;5077133;28;20082;-70
2023/08/11 04:39:26;;;;;;;9.65;4.25;;;461.20;2380.80;;;;;;5076297;28;20031;-70
2023/08/11 04:41:51;;;;;;;8.15;4.78;;;461.20;2380.80;;;;;;5064694;28;20033;-70
2023/08/11 04:44:17;;;;;;;8.10;3.72;;;461.10;2380.80;;;;;;5076110;28;20047;-70
2023/08/11 04:46:43;;;;;;;5.95;3.85;;;461.20;2380.80;;;;;;5076861;28;20031;-69
2023/08/11 04:49:08;;;;;;;6.57;4.00;;;461.30;2380.80;;;;;;5075743;28;20052;-69
2023/08/11 04:51:34;;;;;;;6.13;3.92;;;461.20;2380.80;;;;;;5075953;28;20398;-70
2023/08/11 04:54:02;;;;;;;10.85;4.03;;;461.30;2380.80;;;;;;5076007;28;20031;-69
2023/08/11 04:56:28;;;;;;;9.35;4.20;;;461.20;2380.80;;;;;;5076415;28;20021;-69
2023/08/11 04:58:57;;;;;;;8.43;4.18;;;461.30;2380.80;;;;;;5075957;28;20470;-69
2023/08/11 05:01:23;;;;;;;7.70;3.85;;;461.40;2380.80;;;;;;5075753;28;20390;-69
2023/08/11 05:03:52;;;;;;;5.72;4.13;;;461.30;2380.80;;;;;;5075610;28;20037;-70
2023/08/11 05:06:18;;;;;;;8.63;3.47;;;461.40;2380.80;;;;;;5075681;28;20024;-70
2023/08/11 05:08:45;;;;;;;6.15;3.50;;;461.50;2380.80;;;;;;5075724;28;20036;-69
2023/08/11 05:11:11;;;;;;;7.25;3.92;;;461.70;2380.80;;;;;;5076000;28;20100;-70
2023/08/11 05:13:37;;;;;;;6.78;4.05;;;461.70;2380.80;;;;;;5070097;28;20059;-71
2023/08/11 05:16:03;;;;;;;7.60;3.92;;;461.70;2380.80;;;;;;5073950;28;20031;-69
2023/08/11 05:18:29;;;;;;;8.20;3.83;;;486.50;2380.80;;;;;;5075364;28;20028;-69
2023/08/11 05:20:55;;;;;;;8.90;3.58;;;486.50;2380.80;;;;;;5075359;28;20025;-69
2023/08/11 05:23:21;;;;;;;8.63;3.90;;;486.50;2380.80;;;;;;5075377;28;20036;-69
2023/08/11 05:25:46;;;;;;;6.40;4.38;;;486.60;2380.80;;;;;;5075129;28;20102;-69
2023/08/11 05:28:12;;;;;;;5.93;3.70;;;486.70;2380.80;;;;;;5074991;28;20099;-71
2023/08/11 05:30:38;;;;;;;6.88;3.90;;;486.70;2380.80;;;;;;5074212;28;20475;-68
2023/08/11 05:33:04;;;;;;;7.22;3.90;;;486.80;2380.80;;;;;;5074871;28;20028;-73
2023/08/11 05:35:30;;;;;;;8.20;4.47;;;487.00;2380.80;;;;;;5069661;28;20025;-70
2023/08/11 05:37:56;;;;;;;9.10;3.92;;;487.00;2380.80;;;;;;5074941;28;20032;-70
2023/08/11 05:40:22;;;;;;;8.77;4.18;;;487.10;2380.80;;;;;;5074840;28;20094;-71
2023/08/11 05:42:47;;;;;;;7.15;4.00;;;487.20;2380.80;;;;;;5074922;28;20048;-73
2023/08/11 05:45:13;;;;;;;8.50;4.57;;;487.20;2380.80;;;;;;5074340;28;20025;-71
2023/08/11 05:47:39;;;;;;;8.93;4.50;;;487.30;2380.80;;;;;;5074974;28;20028;-72
2023/08/11 05:50:05;;;;;;;7.15;4.03;;;487.30;2380.80;;;;;;5075180;28;20045;-71
2023/08/11 05:52:31;;;;;;;7.57;4.18;;;487.30;2380.80;;;;;;5075242;28;20021;-71
2023/08/11 05:54:57;;;;;;;8.45;4.07;;;487.30;2380.80;;;;;;5074768;28;20044;-71
2023/08/11 05:57:22;;;;;;;5.50;4.03;;;512.00;2380.80;;;;;;5074968;28;20407;-72
2023/08/11 05:59:48;;;;;;;7.35;4.05;;;512.10;2380.80;;;;;;5074393;28;20124;-71
2023/08/11 06:02:14;;;;;;;6.53;4.30;;;512.30;2380.80;;;;;;5074580;28;20062;-72
2023/08/11 06:04:41;;;;;;;10.25;4.85;;;512.50;2380.80;;;;;;5073797;28;20028;-71
2023/08/11 06:07:07;;;;;;;8.10;4.10;;;512.60;2380.80;;;;;;5074413;28;20047;-73
2023/08/11 06:09:32;;;;;;;6.85;3.67;;;512.80;2380.80;;;;;;5074418;28;20028;-72
2023/08/11 06:42:01;;;;;;;5.75;3.58;;;537.90;2406.40;;;;;;5080706;27;20923;-70
2023/08/11 06:44:27;;;;;;;7.95;4.07;;;563.90;2432.00;;;;;;5082543;28;20021;-70
2023/08/11 06:46:53;;;;;;;7.30;3.50;;;564.10;2432.00;;;;;;5080797;28;20017;-76
2023/08/11 06:49:19;;;;;;;8.60;3.95;;;564.10;2432.00;;;;;;5073624;28;20071;-73
2023/08/11 06:51:45;;;;;;;14.10;3.60;;;588.80;2432.00;;;;;;5072417;28;20074;-72
2023/08/11 06:54:10;;;;;;;8.35;3.80;;;588.90;2406.40;;;;;;5081160;28;20025;-73
2023/08/11 06:56:36;;;;;;;7.22;3.90;;;589.00;2278.40;;;;;;5076586;28;20028;-71
2023/08/11 06:59:02;;;;;;;8.40;3.65;;;589.20;2252.80;;;;;;5105276;28;20021;-72
2023/08/11 07:01:28;;;;;;;7.45;3.67;;;589.40;2227.20;;;;;;5078613;28;20074;-73
2023/08/11 07:03:53;;;;;;;7.50;3.67;;;589.60;2176.00;;;;;;5080694;28;20021;-72
2023/08/11 07:06:19;;;;;;;6.55;3.45;;;589.70;2176.00;;;;;;5071575;28;20059;-73
2023/08/11 07:08:44;;;;;;;12.07;3.75;;;589.70;2124.80;;;;;;5075242;28;20035;-73
2023/08/11 07:11:11;;;;;;;6.07;3.45;;;589.70;2150.40;;;;;;5080645;28;20048;-71
2023/08/11 07:13:36;;;;;;;8.85;3.38;;;614.50;2073.60;;;;;;5076371;28;20032;-72
2023/08/11 07:16:02;;;;;;;7.18;4.03;;;614.60;2022.40;;;;;;5071575;28;20040;-72
2023/08/11 07:18:28;;;;;;;16.05;11.13;;;614.80;2022.40;;;;;;5078165;28;20146;-73
2023/08/11 07:20:54;;;;;;;10.30;6.68;;;614.90;2048.00;;;;;;5077804;28;20097;-72
2023/08/11 07:23:19;;;;;;;17.92;12.70;;;615.10;1971.20;;;;;;5077637;28;20035;-72
2023/08/11 07:25:45;;;;;;;7.20;4.05;;;615.20;1945.60;;;;;;5072292;28;20099;-73
2023/08/11 07:28:11;;;;;;;5.03;3.22;;;615.30;1920.00;;;;;;5079930;28;20112;-73
2023/08/11 07:30:37;;;;;;;6.05;3.65;;;640.10;1894.40;;;;;;5077660;28;20040;-72
2023/08/11 07:33:03;;;;;;;4.30;2.85;;;640.10;1894.40;;;;;;5069891;28;20037;-72
2023/08/11 07:35:30;;;;;;;5.38;2.90;;;640.40;1817.60;;;;;;5072656;28;20039;-74
2023/08/11 07:37:56;;;;;;;5.80;2.65;;;640.70;1817.60;;;;;;5078127;28;20024;-75
2023/08/11 07:40:22;;;;;;;7.40;3.72;;;640.70;1843.20;;;;;;5077549;28;20513;-72
2023/08/11 07:42:47;;;;;;;4.05;2.75;;;640.70;1817.60;;;;;;5063118;28;20032;-74
2023/08/11 07:45:14;;;;;;;7.05;3.08;;;640.90;1843.20;;;;;;5067033;28;20037;-76
2023/08/11 07:47:41;;;;;;;6.32;3.88;;;665.70;1843.20;;;;;;5059022;28;20183;-73
2023/08/11 07:50:07;;;;;;;7.82;3.08;;;666.00;1817.60;;;;;;5066831;28;20035;-72
2023/08/11 07:52:33;;;;;;;5.22;2.95;;;666.30;1740.80;;;;;;5066135;28;20041;-73
2023/08/11 07:54:58;;;;;;;5.15;3.08;;;666.50;1664.00;;;;;;5063117;28;20107;-73
2023/08/11 07:57:24;;;;;;;5.53;3.25;;;691.20;1638.40;;;;;;5067461;28;20424;-72
2023/08/11 07:59:51;;;;;;;7.93;4.07;;;691.30;1664.00;;;;;;5064512;28;20458;-72
2023/08/11 08:34:29;;;;;;;3.90;1.98;;;691.90;1459.20;;;;;;5064520;28;20395;-71
2023/08/11 08:36:55;;;;;;;5.05;2.22;;;742.50;1382.40;;;;;;5045134;28;20016;-72
2023/08/11 08:39:21;;;;;;;4.00;2.33;;;742.70;1382.40;;;;;;5040492;28;20454;-71
2023/08/11 08:41:49;;;;;;;3.88;2.35;;;742.70;1356.80;;;;;;5050962;28;20041;-72
2023/08/11 08:44:15;;;;;;;3.75;2.50;;;742.80;1331.20;;;;;;5063891;28;20047;-71
2023/08/11 08:46:41;;;;;;;4.25;2.33;;;742.90;1356.80;;;;;;5031738;28;20083;-72
2023/08/11 08:49:13;;;;;;;3.30;2.15;;;742.80;1331.20;;;;;;5037625;28;20103;-71
2023/08/11 08:51:40;;;;;;;4.35;2.83;;;742.90;1254.40;;;;;;5052932;28;20145;-72
2023/08/11 08:54:09;;;;;;;3.72;2.15;;;742.90;1254.40;;;;;;5059987;28;20022;-73
2023/08/11 08:56:38;;;;;;;6.22;4.22;;;743.00;1280.00;;;;;;5045146;28;20094;-71
2023/08/11 08:59:04;;;;;;;5.40;2.47;;;743.10;1280.00;;;;;;5059234;28;20068;-73
2023/08/11 09:01:31;;;;;;;10.43;6.57;;;768.00;1280.00;;;;;;5055628;28;20146;-72
2023/08/11 09:03:57;;;;;;;6.93;2.70;;;743.30;1254.40;;;;;;5048995;28;20025;-71
2023/08/11 09:06:26;;;;;;;5.35;2.65;;;768.10;1280.00;;;;;;5049239;28;20116;-71
2023/08/11 09:08:51;;;;;;;3.28;2.10;;;768.40;1254.40;;;;;;5050280;28;20017;-72
2023/08/11 09:11:18;;;;;;;4.07;2.72;;;768.00;1228.80;;;;;;5045963;28;20505;-71
2023/08/11 09:13:45;;;;;;;6.07;2.22;;;768.40;1203.20;;;;;;5038964;28;20030;-72
2023/08/11 09:16:14;;;;;;;4.57;2.30;;;768.20;1203.20;;;;;;5036617;28;20133;-71
2023/08/11 09:18:40;;;;;;;2.42;1.77;;;768.40;1228.80;;;;;;5037029;28;20063;-72
2023/08/11 09:21:07;;;;;;;2.45;1.80;;;768.40;1228.80;;;;;;5051055;28;20032;-73
2023/08/11 09:23:33;;;;;;;3.85;2.13;;;768.00;1203.20;;;;;;5059416;28;20113;-72
2023/08/11 09:26:01;;;;;;;7.30;4.80;;;768.10;1228.80;;;;;;5043414;28;20494;-72
2023/08/11 09:28:26;;;;;;;5.60;2.15;;;768.40;1177.60;;;;;;5043588;28;20029;-72
2023/08/11 09:30:53;;;;;;;4.25;2.45;;;768.50;1203.20;;;;;;5045675;28;20052;-70
2023/08/11 09:33:22;;;;;;;4.18;1.83;;;768.50;1152.00;;;;;;5047165;28;20094;-74
2023/08/11 09:35:48;;;;;;;2.65;2.03;;;768.60;1177.60;;;;;;5028893;28;20034;-73
2023/08/11 09:38:14;;;;;;;4.22;2.00;;;768.50;1228.80;;;;;;5026711;28;20068;-72
2023/08/11 09:40:41;;;;;;;6.10;2.65;;;768.80;1203.20;;;;;;5039517;28;20033;-73
2023/08/11 09:43:07;;;;;;;4.90;2.30;;;768.80;1177.60;;;;;;5025128;28;20056;-73
2023/08/11 09:45:33;;;;;;;3.15;2.03;;;768.90;1177.60;;;;;;5026763;28;20491;-75
2023/08/11 09:47:59;;;;;;;4.90;2.00;;;768.60;1177.60;;;;;;5033880;28;20030;-71
2023/08/11 09:50:30;;;;;;;3.50;2.20;;;793.70;1254.40;;;;;;5039624;28;20071;-70
2023/08/11 09:52:59;;;;;;;5.75;2.50;;;793.70;1203.20;;;;;;5038474;28;20044;-71
2023/08/11 09:55:28;;;;;;;4.28;2.13;;;794.00;1203.20;;;;;;5025470;28;20041;-72
2023/08/11 09:57:56;;;;;;;5.50;2.22;;;794.00;1203.20;;;;;;5028556;28;20021;-70
2023/08/11 10:00:22;;;;;;;3.78;2.47;;;794.10;1203.20;;;;;;5030914;28;20021;-71
2023/08/11 10:03:01;;;;;;;3.63;1.90;;;794.10;1152.00;;;;;;5026145;28;20038;-70
2023/08/11 10:05:29;;;;;;;3.20;1.98;;;794.20;1177.60;;;;;;5026447;28;20026;-73
2023/08/11 10:07:58;;;;;;;4.28;2.53;;;794.20;1152.00;;;;;;5041479;28;20509;-71
2023/08/11 10:10:24;;;;;;;3.47;2.05;;;794.20;1152.00;;;;;;5034711;28;20164;-72
2023/08/11 10:13:07;;;;;;;4.75;2.78;;;794.20;1152.00;;;;;;5027881;28;20432;-72
2023/08/11 10:15:33;;;;;;;4.57;2.35;;;794.50;1152.00;;;;;;5035955;28;20026;-71
2023/08/11 10:18:00;;;;;;;3.83;2.20;;;794.50;1126.40;;;;;;5039151;28;20026;-71
2023/08/11 10:20:26;;;;;;;2.90;1.80;;;819.20;1126.40;;;;;;5028529;28;20022;-72
2023/08/11 10:22:52;;;;;;;3.80;2.42;;;794.50;1100.80;;;;;;5028921;28;20061;-73
2023/08/11 10:25:18;;;;;;;4.28;2.40;;;819.30;1100.80;;;;;;5035149;28;20072;-71
2023/08/11 10:27:44;;;;;;;3.45;1.90;;;819.30;1126.40;;;;;;5033429;28;20026;-71
2023/08/11 10:30:13;;;;;;;3.60;2.00;;;819.30;1100.80;;;;;;5022145;28;20494;-72
2023/08/11 10:32:39;;;;;;;4.22;2.72;;;819.30;1126.40;;;;;;5027893;28;20581;-70
2023/08/11 10:35:17;;;;;;;3.72;2.20;;;819.30;1126.40;;;;;;5024292;28;20100;-72
2023/08/11 10:37:43;;;;;;;3.53;2.30;;;819.60;1126.40;;;;;;5033229;28;20049;-73
2023/08/11 10:40:10;;;;;;;6.07;2.42;;;819.50;1100.80;;;;;;5033964;28;20068;-73
2023/08/11 10:42:37;;;;;;;7.05;2.30;;;819.30;1075.20;;;;;;5042231;28;20061;-72
2023/08/11 10:45:13;;;;;;;3.70;2.25;;;819.40;1075.20;;;;;;5043911;28;20088;-71
2023/08/11 10:47:53;;;;;;;4.78;2.25;;;819.30;1100.80;;;;;;5038689;28;20033;-72
2023/08/11 10:50:20;;;;;;;5.60;2.10;;;819.70;1049.60;;;;;;5033144;28;20033;-71
2023/08/11 10:53:06;;;;;;;4.18;2.30;;;820.00;1049.60;;;;;;5032880;28;20020;-72
2023/08/11 10:55:39;;;;;;;3.92;1.85;;;820.10;1024.00;;;;;;5019403;28;20119;-72
2023/08/11 10:58:13;;;;;;;4.93;2.97;;;820.10;1024.00;;;;;;5026523;28;20091;-70
2023/08/11 11:00:40;;;;;;;3.40;2.25;;;820.10;1024.00;;;;;;5025620;28;20095;-72
2023/08/11 11:03:06;;;;;;;5.70;3.38;;;844.80;1049.60;;;;;;5021181;28;20042;-75
2023/08/11 11:05:32;;;;;;;5.90;3.50;;;844.90;1024.00;;;;;;5032532;28;20032;-71
2023/08/11 11:07:58;;;;;;;3.72;2.30;;;820.10;1049.60;;;;;;5031187;28;20030;-70
2023/08/11 11:10:23;;;;;;;5.18;2.35;;;819.80;998.40;;;;;;5023359;28;20041;-71
2023/08/11 11:12:49;;;;;;;3.10;2.00;;;819.90;1024.00;;;;;;5025305;28;20483;-70
2023/08/11 11:15:15;;;;;;;4.72;2.40;;;820.10;1024.00;;;;;;5039727;28;20025;-71
2023/08/11 11:17:41;;;;;;;2.95;1.98;;;820.10;998.40;;;;;;5030353;28;20437;-71
2023/08/11 11:20:08;;;;;;;5.55;2.13;;;820.00;1075.20;;;;;;5038125;28;20549;-71
2023/08/11 11:22:37;;;;;;;6.28;2.78;;;844.90;1049.60;;;;;;5023958;28;20484;-74
2023/08/11 11:25:04;;;;;;;4.00;2.30;;;844.90;1049.60;;;;;;5031459;28;20030;-71
2023/08/11 11:27:29;;;;;;;10.38;2.63;;;844.90;1049.60;;;;;;5028181;28;20116;-73
2023/08/11 11:29:59;;;;;;;3.42;2.22;;;844.90;1024.00;;;;;;5035613;28;20104;-71
2023/08/11 11:32:24;;;;;;;4.85;2.45;;;844.90;1024.00;;;;;;5037334;28;20115;-74
2023/08/11 11:34:50;;;;;;;3.10;2.00;;;844.90;1024.00;;;;;;5032000;28;20494;-70
2023/08/11 11:37:17;;;;;;;4.03;1.80;;;844.90;1049.60;;;;;;5038878;28;20048;-72
2023/08/11 11:39:43;;;;;;;3.72;1.92;;;820.10;1049.60;;;;;;5033190;28;20060;-71
2023/08/11 11:42:09;;;;;;;3.03;1.80;;;844.90;1024.00;;;;;;5020425;28;20503;-71
2023/08/11 11:44:36;;;;;;;2.47;1.80;;;819.90;972.80;;;;;;5032921;28;20054;-71
2023/08/11 11:47:05;;;;;;;4.28;2.20;;;820.10;1024.00;;;;;;5028846;28;20069;-71
2023/08/11 11:49:31;;;;;;;3.42;2.10;;;845.10;998.40;;;;;;5018238;28;20113;-72
2023/08/11 11:52:00;;;;;;;3.22;2.10;;;845.10;998.40;;;;;;5020173;28;20112;-72
2023/08/11 11:54:30;;;;;;;3.75;1.80;;;845.00;1024.00;;;;;;5036973;28;20497;-72
2023/08/11 11:56:57;;;;;;;3.35;1.80;;;845.10;1049.60;;;;;;5021834;28;20034;-71
2023/08/11 11:59:25;;;;;;;4.28;1.98;;;845.20;998.40;;;;;;5027288;28;20423;-72
2023/08/11 12:01:50;;;;;;;4.30;2.00;;;845.10;947.20;;;;;;5034147;28;20105;-71
2023/08/11 12:04:16;;;;;;;9.63;4.45;;;844.90;972.80;;;;;;5027290;28;20021;-72
2023/08/11 12:06:42;;;;;;;4.57;2.03;;;845.00;1024.00;;;;;;5025264;28;20032;-75
2023/08/11 12:09:11;;;;;;;4.78;2.17;;;845.10;972.80;;;;;;5031912;28;20064;-73
2023/08/11 12:11:40;;;;;;;4.53;2.38;;;845.00;1024.00;;;;;;5022677;28;20030;-72
2023/08/11 12:14:06;;;;;;;4.03;2.00;;;845.00;1024.00;;;;;;5026994;28;20029;-72
2023/08/11 12:16:32;;;;;;;3.00;1.90;;;845.20;1024.00;;;;;;5022380;28;20033;-74
2023/08/11 12:19:02;;;;;;;7.15;2.20;;;845.20;998.40;;;;;;5030610;28;20053;-72
2023/08/11 12:21:28;;;;;;;4.72;1.95;;;844.90;998.40;;;;;;5037282;28;20059;-72
2023/08/11 12:23:54;;;;;;;4.30;2.20;;;844.90;998.40;;;;;;5040900;28;20098;-71
2023/08/11 12:26:20;;;;;;;4.43;2.22;;;844.90;972.80;;;;;;5028095;28;20062;-71
2023/08/11 12:28:45;;;;;;;3.40;2.08;;;845.00;998.40;;;;;;5030209;28;20026;-71
2023/08/11 12:31:11;;;;;;;7.65;2.42;;;845.30;1024.00;;;;;;5029517;28;20033;-73
2023/08/11 12:33:38;;;;;;;3.95;1.60;;;845.40;972.80;;;;;;5029932;28;20073;-72
2023/08/11 12:36:04;;;;;;;5.30;2.10;;;845.40;998.40;;;;;;5030688;28;20040;-76
2023/08/11 12:38:30;;;;;;;3.42;2.35;;;845.20;998.40;;;;;;5025837;28;20034;-77
2023/08/11 12:40:57;;;;;;;6.03;2.30;;;845.20;1024.00;;;;;;5036242;28;20032;-76
2023/08/11 12:43:23;;;;;;;3.50;1.83;;;845.10;998.40;;;;;;5026592;28;20102;-71
2023/08/11 12:45:49;;;;;;;2.67;1.67;;;845.00;998.40;;;;;;5034525;28;20052;-75
2023/08/11 12:48:15;;;;;;;2.72;2.00;;;845.10;998.40;;;;;;5031164;28;20479;-74
2023/08/11 12:50:41;;;;;;;7.05;2.10;;;845.20;1024.00;;;;;;5025127;28;20067;-74
2023/08/11 12:53:07;;;;;;;4.03;2.35;;;845.00;1024.00;;;;;;5025583;28;20507;-76
2023/08/11 12:55:34;;;;;;;5.35;2.20;;;820.10;998.40;;;;;;5025976;28;20029;-75
2023/08/11 12:58:01;;;;;;;3.00;1.85;;;844.80;1024.00;;;;;;5023473;28;20069;-72
2023/08/11 13:00:27;;;;;;;5.85;2.63;;;844.80;998.40;;;;;;5027473;28;20060;-73
2023/08/11 13:02:53;;;;;;;3.13;2.00;;;820.10;972.80;;;;;;5022676;28;20041;-74
2023/08/11 13:05:19;;;;;;;3.50;2.00;;;820.10;972.80;;;;;;5033153;28;20021;-73
2023/08/11 13:07:45;;;;;;;3.33;2.00;;;844.90;998.40;;;;;;5017837;28;20040;-73
2023/08/11 13:10:10;;;;;;;4.97;1.90;;;844.90;998.40;;;;;;5034924;28;20573;-72
2023/08/11 13:12:40;;;;;;;3.35;2.05;;;844.80;1049.60;;;;;;5036497;28;20057;-72
2023/08/11 13:15:07;;;;;;;3.50;1.90;;;845.00;1024.00;;;;;;5032619;28;20037;-73
2023/08/11 13:17:33;;;;;;;3.30;1.95;;;845.10;1049.60;;;;;;5036128;28;20108;-73